Flight Track Log - Related Links

Times and Time Zones

All times are in EDT time to prevent confusion due to time zone crossing. See the F-GSPR flight status page for this flight to view local times or setup timezone preferences in your user account.

Time Position Orientation Groundspeed Altitude Reporting Facility
EDT Latitude Longitude Course Direction KTS MPH feet Rate Location/Type
Thu 10:43:00 AM 49.5198 0.3969 288° West  Level FlightAware Approximate
Thu 10:44:00 AM 49.5515 0.2272 291° West  Level FlightAware Approximate
Thu 10:46:11 AM 49.0214 2.5257 62° Northeast 170 196 800  Level FlightAware ADS-B
Thu 10:46:16 AM 49.0211 2.5196 266° West 173 199 900 2,400 Climbing FlightAware ADS-B
Thu 10:46:26 AM 49.0204 2.5077 265° West 172 198 1,400 2,438 Climbing FlightAware ADS-B
Thu 10:46:48 AM 49.0188 2.4805 265° West 177 204 2,200 2,129 Climbing FlightAware ADS-B
Thu 10:46:57 AM 49.0182 2.4695 265° West 175 201 2,500 2,000 Climbing FlightAware ADS-B
Thu 10:47:03 AM 49.0178 2.4612 266° West 174 200 2,700 1,826 Climbing FlightAware ADS-B
Thu 10:47:20 AM 49.0170 2.4411 267° West 175 201 3,200 1,688 Climbing FlightAware ADS-B
Thu 10:47:35 AM 49.0161 2.4222 266° West 181 208 3,600 1,154 Climbing FlightAware ADS-B
Thu 10:47:46 AM 49.0152 2.4073 265° West 198 228 3,700 571 Climbing FlightAware ADS-B
Thu 10:47:56 AM 49.0143 2.3925 265° West 212 244 3,800 545 Climbing FlightAware ADS-B
Thu 10:48:08 AM 49.0133 2.3745 265° West 226 260 3,900 783 Climbing FlightAware ADS-B
Thu 10:48:19 AM 49.0121 2.3561 264° West 239 275 4,100 1,364 Climbing FlightAware ADS-B
Thu 10:48:30 AM 49.0118 2.3384 269° West 244 281 4,400 1,714 Climbing FlightAware ADS-B
Thu 10:48:33 AM 49.0124 2.3327 279° West 247 284 4,500 1,714 Climbing FlightAware ADS-B
Thu 10:48:37 AM 49.0136 2.3261 285° West 252 290 4,600 857 Climbing FlightAware ADS-B
Thu 10:48:40 AM 49.0151 2.3205 292° West 256 295 4,600 857 Level FlightAware ADS-B
Thu 10:48:44 AM 49.0167 2.3154 296° West 259 298 4,700 1,636 Climbing FlightAware ADS-B
Thu 10:48:51 AM 49.0209 2.3026 297° West 262 302 4,900 1,846 Climbing FlightAware ADS-B
Thu 10:48:57 AM 49.0235 2.2934 293° West 266 306 5,100 1,846 Climbing FlightAware ADS-B
Thu 10:49:04 AM 49.0265 2.2811 290° West 268 308 5,300 2,308 Climbing FlightAware ADS-B
Thu 10:49:10 AM 49.0285 2.2706 286° West 266 306 5,600 3,000 Climbing FlightAware ADS-B
Thu 10:49:18 AM 49.0308 2.2554 283° West 265 305 6,000 2,571 Climbing FlightAware ADS-B
Thu 10:49:24 AM 49.0321 2.2445 280° West 266 306 6,200 2,471 Climbing FlightAware ADS-B
Thu 10:49:35 AM 49.0341 2.2236 278° West 269 310 6,700 2,571 Climbing FlightAware ADS-B
Thu 10:49:45 AM 49.0353 2.2039 275° West 270 311 7,100 2,308 Climbing FlightAware ADS-B
Thu 10:50:01 AM 49.0368 2.1744 274° West 274 315 7,700 2,229 Climbing FlightAware ADS-B
Thu 10:50:20 AM 49.0388 2.1373 275° West 275 316 8,400 2,229 Climbing FlightAware ADS-B
Thu 10:50:36 AM 49.0405 2.1071 275° West 279 321 9,000 2,000 Climbing FlightAware ADS-B
Thu 10:50:53 AM 49.0423 2.0739 275° West 282 325 9,500 1,950 Climbing FlightAware ADS-B
Thu 10:51:16 AM 49.0446 2.0277 274° West 290 334 10,300 1,358 Climbing FlightAware ADS-B
Thu 10:51:46 AM 49.0479 1.9629 274° West 320 368 10,700 885 Climbing FlightAware ADS-B
Thu 10:52:17 AM 49.0516 1.8901 274° West 349 402 11,200 1,180 Climbing FlightAware ADS-B
Thu 10:52:47 AM 49.0538 1.8126 273° West 376 433 11,900 2,000 Climbing FlightAware ADS-B
Thu 10:53:17 AM 49.0550 1.7312 271° West 385 443 13,200 792 Climbing FlightAware ADS-B
Thu 10:53:40 AM 49.0572 1.6704 271° West 386 444 12,600 2,438 Descending FlightAware UK
Thu 10:53:49 AM 49.0567 1.6455 271° West 392 451 14,500 2,750 Climbing FlightAware ADS-B
Thu 10:54:04 AM 49.0575 1.6033 271° West 394 453 13,700 2,600 Descending FlightAware UK
Thu 10:54:19 AM 49.0586 1.5610 271° West 399 459 15,800 2,286 Climbing FlightAware ADS-B
Thu 10:54:46 AM 49.0602 1.4845 271° West 396 456 15,300 2,172 Descending FlightAware UK
Thu 10:55:17 AM 49.0620 1.3959 271° West 416 479 17,900 2,125 Climbing FlightAware ADS-B
Thu 10:55:34 AM 49.0631 1.3447 271° West 414 476 17,000 2,323 Descending FlightAware UK
Thu 10:55:48 AM 49.0638 1.3023 271° West 422 486 19,100 2,200 Climbing FlightAware ADS-B
Thu 10:56:04 AM 49.0646 1.2550 271° West 418 481 18,100 2,053 Descending FlightAware UK
Thu 10:56:26 AM 49.0658 1.1890 271° West 423 487 20,400 3,962 Climbing FlightAware ADS-B
Thu 10:56:57 AM 49.0675 1.0965 272° West 432 497 21,600 2,361 Climbing FlightAware ADS-B
Thu 10:57:27 AM 49.0690 1.0032 271° West 434 499 22,800 122 Climbing FlightAware ADS-B
Thu 10:57:46 AM 49.0695 0.9458 271° West 424 488 21,700 -811 Descending FlightAware UK
Thu 10:58:04 AM 49.0707 0.8898 272° West 426 490 22,300 5,111 Climbing FlightAware UK
Thu 10:58:13 AM 49.0712 0.8628 272° West 447 514 24,000 1,500 Climbing FlightAware ADS-B
Thu 10:58:28 AM 49.0717 0.8149 272° West 434 499 22,900 -909 Descending FlightAware UK
Thu 10:58:46 AM 49.0723 0.7570 271° West 438 504 23,500 1,833 Climbing FlightAware UK
Thu 10:59:04 AM 49.0730 0.6993 271° West 442 509 24,000 1,571 Climbing FlightAware UK
Thu 10:59:28 AM 49.0741 0.6228 271° West 442 509 24,600 1,429 Climbing FlightAware UK
Thu 10:59:46 AM 49.0750 0.5642 271° West 446 513 25,000 1,698 Climbing FlightAware UK
Thu 11:00:21 AM 49.0762 0.4468 271° West 456 525 26,100 1,729 Climbing FlightAware UK
Thu 11:00:45 AM 49.0774 0.3676 271° West 456 525 26,700 1,429 Climbing FlightAware UK
Thu 11:01:03 AM 49.0782 0.3076 271° West 458 527 27,100 1,300 Climbing FlightAware UK
Thu 11:01:45 AM 49.0790 0.1635 271° West 466 536 28,000 1,333 Climbing FlightAware UK
Thu 11:02:15 AM 49.0799 0.0601 271° West 470 541 28,700 1,250 Climbing FlightAware UK
Thu 11:02:57 AM 49.0812 -0.0861 271° West 482 555 29,500 1,300 Climbing FlightAware UK
Thu 11:03:15 AM 49.0816 -0.1497 271° West 486 559 30,000 1,000 Climbing FlightAware UK
Thu 11:03:57 AM 49.0821 -0.2978 270° West 482 555 30,500 455 Climbing FlightAware UK
Thu 11:04:21 AM 49.0821 -0.3816 270° West 474 545 30,500 500 Level FlightAware UK
Thu 11:04:45 AM 49.0823 -0.4631 270° West 476 548 30,900 1,500 Climbing FlightAware UK
Thu 11:05:21 AM 49.0828 -0.5859 270° West 480 552 32,000 1,800 Climbing FlightAware UK
Thu 11:05:45 AM 49.0830 -0.6673 270° West 472 543 32,700 1,800 Climbing FlightAware UK
Thu 11:06:21 AM 49.0830 -0.7878 270° West 474 545 33,800 1,500 Climbing FlightAware UK
Thu 11:06:45 AM 49.0831 -0.8677 270° West 474 545 34,200 712 Climbing FlightAware UK
Thu 11:07:20 AM 49.0828 -0.9868 270° West 478 550 34,500 254 Climbing FlightAware UK
Thu 11:07:56 AM 49.0829 -1.1064 270° West 476 548 34,500  Level FlightAware UK
Thu 11:08:14 AM 49.0838 -1.1660 271° West 476 548 34,500  Level FlightAware UK
Thu 11:08:44 AM 49.0955 -1.2626 280° West 474 545 34,500  Level FlightAware UK
Thu 11:09:02 AM 49.1053 -1.3194 285° West 472 543 34,500  Level FlightAware UK
Thu 11:09:32 AM 49.1210 -1.4155 284° West 474 545 34,500  Level FlightAware UK
Thu 11:10:14 AM 49.1429 -1.5489 284° West 472 543 34,500  Level FlightAware UK
Thu 11:10:50 AM 49.1619 -1.6637 284° West 470 541 34,500  Level FlightAware UK
Thu 11:11:20 AM 49.1767 -1.7600 283° West 472 543 34,500  Level FlightAware UK
Thu 11:12:08 AM 49.2007 -1.9139 283° West 476 548 34,500  Level FlightAware UK
Thu 11:12:32 AM 49.2126 -1.9912 283° West 476 548 34,500  Level FlightAware UK
Thu 11:12:56 AM 49.2245 -2.0676 283° West 474 545 34,500  Level FlightAware UK
Thu 11:13:20 AM 49.2368 -2.1442 284° West 474 545 34,500  Level FlightAware UK
Thu 11:13:44 AM 49.2503 -2.2200 285° West 468 539 34,500  Level FlightAware UK
Thu 11:14:26 AM 49.2738 -2.3520 285° West 470 541 34,500  Level FlightAware UK
Thu 11:15:13 AM 49.2992 -2.5027 285° West 472 543 34,500  Level FlightAware UK
Thu 11:16:37 AM 49.3431 -2.7682 284° West 472 543 34,500  Level FlightAware UK
Thu 11:17:19 AM 49.3650 -2.9001 284° West 472 543 34,500  Level FlightAware UK
Thu 11:18:13 AM 49.3929 -3.0706 284° West 472 543 34,500  Level FlightAware UK
Thu 11:18:31 AM 49.4022 -3.1275 284° West 472 543 34,500  Level FlightAware UK
Thu 11:19:07 AM 49.4206 -3.2405 284° West 472 543 34,500  Level FlightAware UK
Thu 11:19:25 AM 49.4297 -3.2973 284° West 470 541 34,500  Level FlightAware UK
Thu 11:19:43 AM 49.4388 -3.3541 284° West 472 543 34,500  Level FlightAware UK
Thu 11:20:01 AM 49.4477 -3.4102 284° West 474 545 34,500  Level FlightAware UK
Thu 11:20:43 AM 49.4687 -3.5427 284° West 470 541 34,500  Level FlightAware UK
Thu 11:21:07 AM 49.4806 -3.6183 284° West 470 541 34,500  Level FlightAware UK
Thu 11:21:43 AM 49.4986 -3.7319 284° West 474 545 34,500  Level FlightAware UK
Thu 11:22:19 AM 49.5162 -3.8456 284° West 472 543 34,500  Level FlightAware UK
Thu 11:22:37 AM 49.5250 -3.9022 283° West 470 541 34,500  Level FlightAware UK
Thu 11:22:55 AM 49.5337 -3.9588 283° West 470 541 34,500  Level FlightAware UK
Thu 11:23:13 AM 49.5424 -4.0154 283° West 472 543 34,500  Level FlightAware UK
Thu 11:23:31 AM 49.5510 -4.0721 283° West 472 543 34,500  Level FlightAware UK
Thu 11:24:00 AM 49.5653 -4.1656 283° West 470 541 34,500  Level FlightAware UK
Thu 11:24:18 AM 49.5738 -4.2222 283° West 470 541 34,500  Level FlightAware UK
Thu 11:24:36 AM 49.5824 -4.2787 283° West 470 541 34,500  Level FlightAware UK
Thu 11:25:00 AM 49.6014 -4.3499 292° West 470 541 34,500  Level FlightAware UK
Thu 11:25:18 AM 49.6198 -4.4014 299° West 470 541 34,500  Level FlightAware UK
Thu 11:25:42 AM 49.6479 -4.4664 304° West 470 541 34,500  Level FlightAware UK
Thu 11:26:00 AM 49.6688 -4.5154 303° West 472 543 34,500  Level FlightAware UK
Thu 11:26:18 AM 49.6897 -4.5644 303° West 468 539 34,500  Level FlightAware UK
Thu 11:26:36 AM 49.7108 -4.6135 304° West 470 541 34,500  Level FlightAware UK
Thu 11:27:00 AM 49.7389 -4.6789 304° West 470 541 34,500  Level FlightAware UK
Thu 11:27:24 AM 49.7666 -4.7447 303° West 472 543 34,500  Level FlightAware UK
Thu 11:27:42 AM 49.7874 -4.7942 303° West 472 543 34,500  Level FlightAware UK
Thu 11:28:00 AM 49.8082 -4.8438 303° West 472 543 34,500  Level FlightAware UK
Thu 11:28:18 AM 49.8289 -4.8934 303° West 470 541 34,500  Level FlightAware UK
Thu 11:28:36 AM 49.8494 -4.9425 303° West 474 545 34,500  Level FlightAware UK
Thu 11:28:54 AM 49.8702 -4.9921 303° West 472 543 34,500  Level FlightAware UK
Thu 11:29:12 AM 49.8908 -5.0418 303° West 472 543 34,500  Level FlightAware UK
Thu 11:29:30 AM 49.9117 -5.0914 303° West 472 543 34,500  Level FlightAware UK
Thu 11:29:48 AM 49.9323 -5.1412 303° West 472 543 34,500  Level FlightAware UK
Thu 11:30:06 AM 49.9529 -5.1910 303° West 470 541 34,500  Level FlightAware UK
Thu 11:30:24 AM 49.9735 -5.2408 303° West 472 543 34,500  Level FlightAware UK
Thu 11:30:42 AM 49.9941 -5.2907 303° West 472 543 34,500  Level FlightAware UK
Thu 11:31:06 AM 50.0215 -5.3571 303° West 470 541 34,500  Level FlightAware UK
Thu 11:31:24 AM 50.0421 -5.4070 303° West 474 545 34,500  Level FlightAware UK
Thu 11:31:42 AM 50.0626 -5.4570 303° West 470 541 34,500  Level FlightAware UK
Thu 11:32:00 AM 50.0832 -5.5070 303° West 472 543 34,500  Level FlightAware UK
Thu 11:32:18 AM 50.1036 -5.5569 303° West 472 543 34,500  Level FlightAware UK
Thu 11:32:36 AM 50.1239 -5.6069 302° West 470 541 34,500  Level FlightAware UK
Thu 11:32:54 AM 50.1443 -5.6567 302° West 470 541 34,500  Level FlightAware UK
Thu 11:33:12 AM 50.1644 -5.7067 302° West 468 539 34,500  Level FlightAware UK
Thu 11:33:30 AM 50.1836 -5.7575 301° West 468 539 34,500  Level FlightAware UK
Thu 11:33:48 AM 50.2021 -5.8088 299° West 470 541 34,500  Level FlightAware UK
Thu 11:34:06 AM 50.2209 -5.8600 300° West 466 536 34,500  Level FlightAware UK
Thu 11:34:24 AM 50.2399 -5.9112 300° West 468 539 34,500  Level FlightAware UK
Thu 11:34:48 AM 50.2655 -5.9788 301° West 470 541 34,500  Level FlightAware UK
Thu 11:35:06 AM 50.2848 -6.0301 301° West 470 541 34,500  Level FlightAware UK
Thu 11:35:24 AM 50.3041 -6.0815 301° West 472 543 34,500  Level FlightAware UK
Thu 11:35:42 AM 50.3235 -6.1328 301° West 472 543 34,500  Level FlightAware UK
Thu 11:36:00 AM 50.3428 -6.1842 301° West 472 543 34,500  Level FlightAware UK
Thu 11:36:18 AM 50.3621 -6.2354 300° West 474 545 34,500  Level FlightAware UK
Thu 11:36:36 AM 50.3813 -6.2865 301° West 474 545 34,500  Level FlightAware UK
Thu 11:36:54 AM 50.4004 -6.3374 301° West 472 543 34,500  Level FlightAware UK
Thu 11:37:12 AM 50.4194 -6.3883 300° West 474 545 34,500  Level FlightAware UK
Thu 11:37:30 AM 50.4384 -6.4389 301° West 472 543 34,500  Level FlightAware UK
Thu 11:37:48 AM 50.4571 -6.4896 300° West 472 543 34,500  Level FlightAware UK
Thu 11:38:06 AM 50.4758 -6.5402 300° West 472 543 34,500  Level FlightAware UK
Thu 11:38:24 AM 50.4943 -6.5907 300° West 470 541 34,500  Level FlightAware UK
Thu 11:38:42 AM 50.5128 -6.6412 300° West 470 541 34,500  Level FlightAware UK
Thu 11:39:00 AM 50.5314 -6.6918 300° West 470 541 34,500  Level FlightAware UK
Thu 11:39:18 AM 50.5499 -6.7424 300° West 472 543 34,500  Level FlightAware UK
Thu 11:39:36 AM 50.5684 -6.7932 300° West 470 541 34,500  Level FlightAware UK
Thu 11:39:54 AM 50.5869 -6.8440 300° West 470 541 34,500  Level FlightAware UK
Thu 11:40:12 AM 50.6056 -6.8946 300° West 472 543 34,500  Level FlightAware UK
Thu 11:40:30 AM 50.6242 -6.9452 300° West 470 541 34,500  Level FlightAware UK
Thu 11:40:48 AM 50.6427 -6.9958 300° West 468 539 34,500  Level FlightAware UK
Thu 11:41:06 AM 50.6610 -7.0464 300° West 468 539 34,500  Level FlightAware UK
Thu 11:41:24 AM 50.6790 -7.0963 300° West 464 534 34,500 167 Level FlightAware UK
Thu 11:41:42 AM 50.6971 -7.1467 300° West 466 536 34,600 833 Climbing FlightAware UK
Thu 11:42:00 AM 50.7152 -7.1973 299° West 468 539 35,000 1,000 Climbing FlightAware UK
Thu 11:42:18 AM 50.7333 -7.2478 300° West 470 541 35,200 667 Climbing FlightAware UK
Thu 11:42:36 AM 50.7514 -7.2986 299° West 468 539 35,400 500 Climbing FlightAware UK
Thu 11:42:54 AM 50.7697 -7.3497 300° West 472 543 35,500  Climbing FlightAware UK
Thu 11:43:12 AM 50.7882 -7.4013 300° West 472 543 35,400 -167 Descending FlightAware UK
Thu 11:43:30 AM 50.8066 -7.4531 299° West 472 543 35,400  Level FlightAware UK
Thu 11:43:48 AM 50.8250 -7.5048 299° West 470 541 35,400  Level FlightAware UK
Thu 11:44:06 AM 50.8433 -7.5563 299° West 472 543 35,400  Level FlightAware UK
Thu 11:44:24 AM 50.8616 -7.6077 299° West 470 541 35,400 167 Level FlightAware UK
Thu 11:44:42 AM 50.8799 -7.6592 299° West 472 543 35,500  Climbing FlightAware UK
Thu 11:45:00 AM 50.8981 -7.7107 299° West 472 543 35,400 -167 Descending FlightAware UK
Thu 11:45:18 AM 50.9162 -7.7621 299° West 470 541 35,400  Level FlightAware UK
Thu 11:45:36 AM 50.9344 -7.8135 299° West 470 541 35,400  Level FlightAware UK
Thu 11:45:54 AM 50.9525 -7.8647 299° West 468 539 35,400  Level FlightAware UK
Thu 11:46:12 AM 50.9706 -7.9160 299° West 472 543 35,400 167 Level FlightAware UK
Thu 11:46:30 AM 50.9886 -7.9673 299° West 472 543 35,500 167 Climbing FlightAware UK
Thu 11:46:48 AM 51.0063 -8.0187 299° West 472 543 35,500 -167 Level FlightAware UK
Thu 11:47:06 AM 51.0241 -8.0703 299° West 470 541 35,400 -167 Descending FlightAware UK
Thu 11:47:24 AM 51.0411 -8.1223 298° West 468 539 35,400 167 Level FlightAware UK
Thu 11:47:42 AM 51.0578 -8.1746 297° West 470 541 35,500  Climbing FlightAware UK
Thu 11:48:00 AM 51.0745 -8.2271 297° West 470 541 35,400 -167 Descending FlightAware UK
Thu 11:48:18 AM 51.0910 -8.2791 297° West 470 541 35,400  Level FlightAware UK
Thu 11:48:36 AM 51.1079 -8.3316 297° West 470 541 35,400  Level FlightAware UK
Thu 11:48:54 AM 51.1249 -8.3839 297° West 470 541 35,400 167 Level FlightAware UK
Thu 11:49:12 AM 51.1420 -8.4362 297° West 470 541 35,500 167 Climbing FlightAware UK
Thu 11:49:30 AM 51.1589 -8.4886 297° West 470 541 35,500  Level FlightAware UK
Thu 11:49:48 AM 51.1759 -8.5410 297° West 466 536 35,500  Level FlightAware UK
Thu 11:50:06 AM 51.1928 -8.5934 297° West 470 541 35,500  Level FlightAware UK
Thu 11:50:24 AM 51.2097 -8.6459 297° West 472 543 35,500  Level FlightAware UK
Thu 11:50:42 AM 51.2266 -8.6985 297° West 474 545 35,500  Level FlightAware UK
Thu 11:51:00 AM 51.2435 -8.7510 297° West 476 548 35,500  Level FlightAware UK
Thu 11:51:18 AM 51.2604 -8.8033 297° West 474 545 35,500  Level FlightAware UK
Thu 11:51:36 AM 51.2771 -8.8556 297° West 470 541 35,500  Level FlightAware UK
Thu 11:51:54 AM 51.2936 -8.9077 297° West 470 541 35,500  Level FlightAware UK
Thu 11:52:12 AM 51.3100 -8.9598 297° West 470 541 35,500  Level FlightAware UK
Thu 11:52:30 AM 51.3264 -9.0118 297° West 468 539 35,500 25 Level FlightAware UK
Thu 11:54:00 AM 51.3063 -9.2995 264° West  Level FlightAware Approximate
Thu 12:01:00 PM 51.5019 -10.7157 282° West  Level Estimated
Thu 12:02:00 PM 51.5224 -10.9208 279° West  Level FlightAware Approximate
Thu 12:03:00 PM 51.5424 -11.1261 279° West  Level FlightAware Approximate
Thu 12:04:00 PM 51.5621 -11.3316 279° West  Level FlightAware Approximate
Thu 12:05:00 PM 51.5814 -11.5372 279° West  Level FlightAware Approximate
Thu 12:06:00 PM 51.6004 -11.7430 279° West  Level FlightAware Approximate
Thu 12:07:00 PM 51.6190 -11.9490 278° West  Level FlightAware Approximate
Thu 12:08:00 PM 51.6373 -12.1552 278° West  Level FlightAware Approximate
Thu 12:09:00 PM 51.6552 -12.3615 278° West  Level FlightAware Approximate
Thu 12:10:00 PM 51.6727 -12.5679 278° West  Level FlightAware Approximate
Thu 12:11:00 PM 51.6898 -12.7746 278° West  Level FlightAware Approximate
Thu 12:12:00 PM 51.7066 -12.9813 278° West  Level FlightAware Approximate
Thu 12:13:00 PM 51.7231 -13.1883 277° West  Level FlightAware Approximate
Thu 12:14:00 PM 51.7392 -13.3954 277° West  Level FlightAware Approximate
Thu 12:15:00 PM 51.7549 -13.6026 277° West  Level FlightAware Approximate
Thu 12:16:00 PM 51.7702 -13.8100 277° West  Level FlightAware Approximate
Thu 12:17:00 PM 51.7852 -14.0175 277° West  Level FlightAware Approximate
Thu 12:18:00 PM 51.7998 -14.2251 277° West  Level FlightAware Approximate
Thu 12:19:00 PM 51.8141 -14.4329 276° West  Level FlightAware Approximate
Thu 12:20:00 PM 51.8279 -14.6408 276° West  Level FlightAware Approximate
Thu 12:21:00 PM 51.8415 -14.8489 276° West  Level FlightAware Approximate
Thu 12:22:00 PM 51.8611 -15.0557 277° West  Level Estimated
Thu 12:23:00 PM 51.8775 -15.2634 277° West  Level FlightAware Approximate
Thu 12:24:00 PM 51.8935 -15.4712 277° West  Level FlightAware Approximate
Thu 12:25:00 PM 51.9092 -15.6791 277° West  Level FlightAware Approximate
Thu 12:26:00 PM 51.9245 -15.8872 277° West  Level FlightAware Approximate
Thu 12:27:00 PM 51.9394 -16.0954 277° West  Level FlightAware Approximate
Thu 12:28:00 PM 51.9540 -16.3038 277° West  Level FlightAware Approximate
Thu 12:29:00 PM 51.9682 -16.5123 276° West  Level FlightAware Approximate
Thu 12:30:00 PM 51.9820 -16.7209 276° West  Level FlightAware Approximate
Thu 12:31:00 PM 51.9955 -16.9297 276° West  Level FlightAware Approximate
Thu 12:32:00 PM 52.0086 -17.1386 276° West  Level FlightAware Approximate
Thu 12:33:00 PM 52.0213 -17.3476 276° West  Level FlightAware Approximate
Thu 12:34:00 PM 52.0362 -17.5505 277° West  Level Estimated
Thu 12:35:00 PM 52.0508 -17.7535 277° West  Level Estimated
Thu 12:36:00 PM 52.0649 -17.9566 277° West  Level Estimated
Thu 12:37:00 PM 52.0788 -18.1599 276° West  Level Estimated
Thu 12:38:00 PM 52.0923 -18.3632 276° West  Level Estimated
Thu 12:39:00 PM 52.1054 -18.5667 276° West  Level Estimated
Thu 12:40:00 PM 52.1182 -18.7704 276° West  Level Estimated
Thu 12:41:00 PM 52.1306 -18.9741 276° West  Level Estimated
Thu 12:42:00 PM 52.1427 -19.1779 276° West  Level Estimated
Thu 12:43:00 PM 52.1544 -19.3819 275° West  Level Estimated
Thu 12:44:00 PM 52.1658 -19.5860 275° West  Level Estimated
Thu 12:45:00 PM 52.1768 -19.7901 275° West  Level Estimated
Thu 12:46:00 PM 52.1875 -19.9944 275° West  Level Estimated
Thu 12:47:00 PM 52.1978 -20.1988 275° West  Level Estimated
Thu 12:48:00 PM 52.2078 -20.4032 275° West  Level Estimated
Thu 12:49:00 PM 52.2174 -20.6078 274° West  Level Estimated
Thu 12:50:00 PM 52.2266 -20.8124 274° West  Level Estimated
Thu 12:51:00 PM 52.2355 -21.0171 274° West  Level Estimated
Thu 12:52:00 PM 52.2441 -21.2219 274° West  Level Estimated
Thu 12:52:00 PM 54.0000 -20.0000 274° West 459 528 37,000  Level ETMS Enhanced Traffic Management System
Thu 12:53:00 PM 52.2523 -21.4268 274° West  Level Estimated
Thu 12:54:00 PM 52.2601 -21.6317 274° West  Level Estimated
Thu 12:55:00 PM 52.2676 -21.8368 273° West  Level Estimated
Thu 12:56:00 PM 52.2748 -22.0418 273° West  Level Estimated
Thu 12:57:00 PM 52.2815 -22.2470 273° West  Level Estimated
Thu 12:58:00 PM 54.0471 -21.3016 273° West 459 528 37,000  Level FlightAware Transoceanic
Thu 12:59:00 PM 54.0535 -21.5187 273° West 459 528 37,000  Level FlightAware Transoceanic
Thu 01:00:00 PM 54.0596 -21.7360 273° West 459 528 37,000  Level FlightAware Transoceanic
Thu 01:01:00 PM 54.0653 -21.9533 272° West 459 528 37,000  Level FlightAware Transoceanic
Thu 01:02:00 PM 54.0706 -22.1707 272° West 459 528 37,000  Level FlightAware Transoceanic
Thu 01:03:00 PM 54.0755 -22.3881 272° West 459 528 37,000  Level FlightAware Transoceanic
Thu 01:04:00 PM 54.0800 -22.6056 272° West 459 528 37,000  Level FlightAware Transoceanic
Thu 01:05:00 PM 54.0842 -22.8232 272° West 459 528 37,000  Level FlightAware Transoceanic
Thu 01:06:00 PM 54.0879 -23.0407 272° West 459 528 37,000  Level FlightAware Transoceanic
Thu 01:07:00 PM 54.0912 -23.2583 271° West 459 528 37,000  Level FlightAware Transoceanic
Thu 01:08:00 PM 54.0942 -23.4760 271° West 459 528 37,000  Level FlightAware Transoceanic
Thu 01:09:00 PM 54.0967 -23.6936 271° West 459 528 37,000  Level FlightAware Transoceanic
Thu 01:10:00 PM 54.0989 -23.9113 271° West 459 528 37,000  Level FlightAware Transoceanic
Thu 01:11:00 PM 54.1007 -24.1290 271° West 459 528 37,000  Level FlightAware Transoceanic
Thu 01:12:00 PM 54.1021 -24.3468 271° West 459 528 37,000  Level FlightAware Transoceanic
Thu 01:13:00 PM 54.1030 -24.5645 270° West 459 528 37,000  Level FlightAware Transoceanic
Thu 01:14:00 PM 54.1036 -24.7822 270° West 459 528 37,000  Level FlightAware Transoceanic
Thu 01:15:00 PM 54.1038 -25.0000 270° West 459 528 37,000  Level FlightAware Transoceanic
Thu 01:16:00 PM 54.1036 -25.2178 270° West 459 528 37,000  Level FlightAware Transoceanic
Thu 01:17:00 PM 54.1030 -25.4355 270° West 459 528 37,000  Level FlightAware Transoceanic
Thu 01:18:00 PM 54.1021 -25.6532 269° West 459 528 37,000  Level FlightAware Transoceanic
Thu 01:19:00 PM 54.1007 -25.8710 269° West 459 528 37,000  Level FlightAware Transoceanic
Thu 01:20:00 PM 54.0989 -26.0887 269° West 459 528 37,000  Level FlightAware Transoceanic
Thu 01:21:00 PM 54.0967 -26.3064 269° West 459 528 37,000  Level FlightAware Transoceanic
Thu 01:22:00 PM 54.0942 -26.5240 269° West 459 528 37,000  Level FlightAware Transoceanic
Thu 01:23:00 PM 54.0912 -26.7417 269° West 459 528 37,000  Level FlightAware Transoceanic
Thu 01:24:00 PM 54.0879 -26.9593 268° West 459 528 37,000  Level FlightAware Transoceanic
Thu 01:25:00 PM 54.0842 -27.1768 268° West 459 528 37,000  Level FlightAware Transoceanic
Thu 01:26:00 PM 54.0800 -27.3944 268° West 459 528 37,000  Level FlightAware Transoceanic
Thu 01:27:00 PM 54.0755 -27.6119 268° West 459 528 37,000  Level FlightAware Transoceanic
Thu 01:28:00 PM 54.0706 -27.8293 268° West 459 528 37,000  Level FlightAware Transoceanic
Thu 01:29:00 PM 54.0653 -28.0467 268° West 459 528 37,000  Level FlightAware Transoceanic
Thu 01:30:00 PM 54.0596 -28.2640 267° West 459 528 37,000  Level FlightAware Transoceanic
Thu 01:31:00 PM 54.0535 -28.4813 267° West 459 528 37,000  Level FlightAware Transoceanic
Thu 01:32:00 PM 54.0471 -28.6984 267° West 459 528 37,000  Level FlightAware Transoceanic
Thu 01:33:00 PM 54.0402 -28.9156 267° West 459 528 37,000  Level FlightAware Transoceanic
Thu 01:34:00 PM 54.0329 -29.1326 267° West 459 528 37,000  Level FlightAware Transoceanic
Thu 01:35:00 PM 54.0253 -29.3496 266° West 459 528 37,000  Level FlightAware Transoceanic
Thu 01:36:00 PM 54.0173 -29.5665 266° West 459 528 37,000  Level FlightAware Transoceanic
Thu 01:37:00 PM 54.0088 -29.7833 266° West 459 528 37,000 11 Level FlightAware Transoceanic
Thu 01:38:00 PM 54.0001 -29.9967 266° West  Level FlightAware Approximate
Thu 01:39:00 PM 53.9910 -30.2099 266° West  Level FlightAware Approximate
Thu 01:40:00 PM 54.0084 -30.2067 274° West  Level FlightAware Approximate
Thu 01:41:00 PM 54.0167 -30.4201 274° West  Level FlightAware Approximate
Thu 01:42:00 PM 54.0247 -30.6336 274° West  Level FlightAware Approximate
Thu 01:43:00 PM 54.0322 -30.8472 274° West  Level FlightAware Approximate
Thu 01:44:00 PM 54.0394 -31.0609 273° West  Level FlightAware Approximate
Thu 01:45:00 PM 54.0462 -31.2747 273° West  Level FlightAware Approximate
Thu 01:46:00 PM 54.0527 -31.4885 273° West  Level FlightAware Approximate
Thu 01:47:00 PM 54.0587 -31.7024 273° West  Level FlightAware Approximate
Thu 01:48:00 PM 54.0644 -31.9164 273° West  Level FlightAware Approximate
Thu 01:49:00 PM 54.0697 -32.1304 272° West  Level FlightAware Approximate
Thu 01:50:00 PM 54.0746 -32.3444 272° West  Level FlightAware Approximate
Thu 01:51:00 PM 54.0791 -32.5586 272° West  Level FlightAware Approximate
Thu 01:52:00 PM 54.0833 -32.7727 272° West  Level FlightAware Approximate
Thu 01:53:00 PM 54.0870 -32.9869 272° West  Level FlightAware Approximate
Thu 01:54:00 PM 54.0904 -33.2011 272° West  Level FlightAware Approximate
Thu 01:55:00 PM 54.0934 -33.4154 271° West  Level FlightAware Approximate
Thu 01:56:00 PM 54.0961 -33.6297 271° West  Level FlightAware Approximate
Thu 01:57:00 PM 54.0983 -33.8440 271° West  Level FlightAware Approximate
Thu 01:58:00 PM 54.1002 -34.0583 271° West  Level FlightAware Approximate
Thu 01:59:00 PM 54.1016 -34.2727 271° West  Level FlightAware Approximate
Thu 02:00:00 PM 54.1027 -34.4871 271° West  Level FlightAware Approximate
Thu 02:01:00 PM 54.1035 -34.7015 270° West  Level FlightAware Approximate
Thu 02:02:00 PM 54.1038 -34.9159 270° West  Level FlightAware Approximate
Thu 02:03:00 PM 54.1037 -35.1302 270° West  Level FlightAware Approximate
Thu 02:04:00 PM 54.1033 -35.3446 270° West  Level FlightAware Approximate
Thu 02:05:00 PM 54.1025 -35.5590 270° West  Level FlightAware Approximate
Thu 02:06:00 PM 54.1013 -35.7734 270° West  Level FlightAware Approximate
Thu 02:07:00 PM 54.0998 -35.9877 269° West  Level FlightAware Approximate
Thu 02:08:00 PM 54.0978 -36.2021 269° West  Level FlightAware Approximate
Thu 02:09:00 PM 54.0955 -36.4164 269° West  Level FlightAware Approximate
Thu 02:10:00 PM 54.0928 -36.6307 269° West  Level FlightAware Approximate
Thu 02:11:00 PM 54.0897 -36.8449 269° West  Level FlightAware Approximate
Thu 02:12:00 PM 54.0862 -37.0592 269° West  Level FlightAware Approximate
Thu 02:13:00 PM 54.0824 -37.2733 268° West  Level FlightAware Approximate
Thu 02:14:00 PM 54.0782 -37.4875 268° West  Level FlightAware Approximate
Thu 02:15:00 PM 54.0735 -37.7016 268° West  Level FlightAware Approximate
Thu 02:16:00 PM 54.0686 -37.9156 268° West  Level FlightAware Approximate
Thu 02:17:00 PM 54.0632 -38.1296 268° West  Level FlightAware Approximate
Thu 02:18:00 PM 54.0574 -38.3436 267° West  Level FlightAware Approximate
Thu 02:19:00 PM 54.0513 -38.5575 267° West  Level FlightAware Approximate
Thu 02:20:00 PM 54.0448 -38.7713 267° West  Level FlightAware Approximate
Thu 02:21:00 PM 54.0379 -38.9850 267° West  Level FlightAware Approximate
Thu 02:22:00 PM 54.0307 -39.1987 267° West  Level FlightAware Approximate
Thu 02:23:00 PM 54.0230 -39.4123 267° West  Level FlightAware Approximate
Thu 02:24:00 PM 54.0150 -39.6258 266° West  Level FlightAware Approximate
Thu 02:25:00 PM 54.0066 -39.8392 266° West  Level FlightAware Approximate
Thu 02:26:00 PM 53.9970 -40.0524 264° West  Level FlightAware Approximate
Thu 02:27:00 PM 53.9844 -40.2652 264° West  Level FlightAware Approximate
Thu 02:28:00 PM 53.9715 -40.4778 264° West  Level FlightAware Approximate
Thu 02:29:00 PM 53.9582 -40.6903 264° West  Level FlightAware Approximate
Thu 02:30:00 PM 53.9446 -40.9026 264° West  Level FlightAware Approximate
Thu 02:31:00 PM 53.9305 -41.1148 264° West  Level FlightAware Approximate
Thu 02:32:00 PM 53.9161 -41.3269 264° West  Level FlightAware Approximate
Thu 02:33:00 PM 53.9013 -41.5388 263° West  Level FlightAware Approximate
Thu 02:34:00 PM 53.8862 -41.7505 263° West  Level FlightAware Approximate
Thu 02:35:00 PM 53.8707 -41.9621 263° West  Level FlightAware Approximate
Thu 02:36:00 PM 53.8548 -42.1735 263° West  Level FlightAware Approximate
Thu 02:37:00 PM 53.8385 -42.3848 263° West  Level FlightAware Approximate
Thu 02:38:00 PM 53.8218 -42.5959 262° West  Level FlightAware Approximate
Thu 02:39:00 PM 53.8048 -42.8069 262° West  Level FlightAware Approximate
Thu 02:40:00 PM 53.7874 -43.0177 262° West  Level FlightAware Approximate
Thu 02:41:00 PM 53.7697 -43.2282 262° West  Level FlightAware Approximate
Thu 02:42:00 PM 53.7516 -43.4386 262° West  Level FlightAware Approximate
Thu 02:43:00 PM 53.7331 -43.6489 262° West  Level FlightAware Approximate
Thu 02:44:00 PM 53.7142 -43.8589 261° West  Level FlightAware Approximate
Thu 02:45:00 PM 53.6950 -44.0688 261° West  Level FlightAware Approximate
Thu 02:46:00 PM 53.6754 -44.2784 261° West  Level FlightAware Approximate
Thu 02:47:00 PM 53.6555 -44.4879 261° West  Level FlightAware Approximate
Thu 02:48:00 PM 53.6351 -44.6972 261° West  Level FlightAware Approximate
Thu 02:49:00 PM 53.6144 -44.9062 261° West  Level FlightAware Approximate
Thu 02:50:00 PM 53.5933 -45.1150 260° West  Level FlightAware Approximate
Thu 02:51:00 PM 53.5715 -45.3236 260° West  Level FlightAware Approximate
Thu 02:52:00 PM 53.5493 -45.5319 260° West  Level FlightAware Approximate
Thu 02:53:00 PM 53.5268 -45.7399 260° West  Level FlightAware Approximate
Thu 02:54:00 PM 53.5039 -45.9478 260° West  Level FlightAware Approximate
Thu 02:55:00 PM 53.4807 -46.1555 259° West  Level FlightAware Approximate
Thu 02:56:00 PM 53.4571 -46.3629 259° West  Level FlightAware Approximate
Thu 02:57:00 PM 53.4331 -46.5700 259° West  Level FlightAware Approximate
Thu 02:58:00 PM 53.4088 -46.7770 259° West  Level FlightAware Approximate
Thu 02:59:00 PM 53.3842 -46.9837 259° West  Level FlightAware Approximate
Thu 03:00:00 PM 53.3591 -47.1902 259° West  Level FlightAware Approximate
Thu 03:01:00 PM 53.3337 -47.3964 258° West  Level FlightAware Approximate
Thu 03:02:00 PM 53.3085 -47.6026 259° West  Level FlightAware Approximate
Thu 03:03:00 PM 53.2840 -47.8088 259° West  Level FlightAware Approximate
Thu 03:04:00 PM 53.2592 -48.0149 259° West  Level FlightAware Approximate
Thu 03:04:32 PM 52.8833 -50.4167 258° West 280 322 38,000  Level Gander Center
Thu 03:05:00 PM 53.2340 -48.2207 259° West  Level FlightAware Approximate
Thu 03:05:32 PM 52.8333 -50.6333 249° West 490 564 38,000  Level Gander Center
Thu 03:06:00 PM 53.2085 -48.4263 258° West  Level FlightAware Approximate
Thu 03:06:32 PM 52.8167 -50.8500 263° West 500 575 38,000  Level Gander Center
Thu 03:07:00 PM 53.1825 -48.6316 258° West  Level FlightAware Approximate
Thu 03:07:32 PM 52.7667 -51.0667 249° West 500 575 38,000  Level Gander Center
Thu 03:08:00 PM 53.1563 -48.8366 258° West  Level FlightAware Approximate
Thu 03:08:32 PM 52.7167 -51.3000 251° West 500 575 38,000  Level Gander Center
Thu 03:09:00 PM 53.1297 -49.0415 258° West  Level FlightAware Approximate
Thu 03:09:32 PM 52.6500 -51.5000 241° Southwest 510 587 38,000  Level Gander Center
Thu 03:10:32 PM 52.6167 -51.7667 258° West 510 587 38,000  Level Gander Center
Thu 03:11:32 PM 52.5667 -51.9667 248° West 510 587 38,000  Level Gander Center
Thu 03:12:32 PM 52.5000 -52.2000 245° Southwest 520 598 38,000  Level Gander Center
Thu 03:13:32 PM 52.4500 -52.4000 248° West 520 598 38,000  Level Gander Center
Thu 03:14:32 PM 52.4000 -52.6333 251° West 510 587 38,000  Level Gander Center
Thu 03:15:32 PM 52.3500 -52.8333 248° West 510 587 38,000  Level Gander Center
Thu 03:16:32 PM 52.2833 -53.0500 243° Southwest 510 587 38,000  Level Gander Center
Thu 03:17:32 PM 52.2167 -53.2500 242° Southwest 520 598 38,000  Level Gander Center
Thu 03:18:32 PM 52.1667 -53.4667 249° West 510 587 38,000  Level Gander Center
Thu 03:19:32 PM 52.1000 -53.6833 243° Southwest 520 598 38,000  Level Gander Center
Thu 03:20:32 PM 52.0500 -53.9000 250° West 520 598 38,000  Level Gander Center
Thu 03:21:32 PM 51.9833 -54.1000 242° Southwest 510 587 38,000  Level Gander Center
Thu 03:22:32 PM 51.9167 -54.3000 242° Southwest 510 587 38,000  Level Gander Center
Thu 03:23:32 PM 51.8500 -54.5333 245° Southwest 520 598 38,000  Level Gander Center
Thu 03:24:32 PM 51.7833 -54.7333 242° Southwest 520 598 38,000  Level Gander Center
Thu 03:25:32 PM 51.7000 -54.9333 236° Southwest 520 598 38,000  Level Gander Center
Thu 03:26:32 PM 51.6333 -55.1333 242° Southwest 520 598 38,000  Level Gander Center
Thu 03:27:32 PM 51.5500 -55.3333 236° Southwest 520 598 38,000  Level Gander Center
Thu 03:28:32 PM 51.4667 -55.5333 236° Southwest 530 610 38,000  Level Gander Center
Thu 03:29:32 PM 51.4000 -55.7333 242° Southwest 530 610 38,000  Level Gander Center
Thu 03:30:32 PM 51.3167 -55.9333 236° Southwest 520 598 38,000  Level Gander Center
Thu 03:31:32 PM 51.2500 -56.1167 240° Southwest 520 598 38,000  Level Gander Center
Thu 03:32:32 PM 51.1500 -56.3167 231° Southwest 530 610 38,000  Level Gander Center
Thu 03:33:32 PM 51.0833 -56.5167 242° Southwest 520 598 38,000  Level Gander Center
Thu 03:34:32 PM 51.0000 -56.7167 237° Southwest 520 598 38,000  Level Gander Center
Thu 03:35:32 PM 50.9000 -56.9000 229° Southwest 530 610 38,000  Level Gander Center
Thu 03:36:32 PM 50.8333 -57.1000 242° Southwest 520 598 38,000  Level Gander Center
Thu 03:36:53 PM 50.8000 -57.1667 232° Southwest 530 610 38,000  Level Moncton Center
Thu 03:37:53 PM 50.7167 -57.3500 234° Southwest 520 598 38,000  Level Moncton Center
Thu 03:38:42 PM 50.6667 -57.5167 245° Southwest 520 598 38,000  Level Gander Center
Thu 03:39:32 PM 50.6000 -57.6500 232° Southwest 510 587 38,000  Level Gander Center
Thu 03:40:32 PM 50.5000 -57.8667 234° Southwest 520 598 38,000  Level Gander Center
Thu 03:41:32 PM 50.4167 -58.0333 232° Southwest 520 598 38,000  Level Gander Center
Thu 03:42:32 PM 50.3500 -58.2500 244° Southwest 520 598 38,000  Level Gander Center
Thu 03:42:53 PM 50.3167 -58.2833 213° Southwest 520 598 38,000  Level Moncton Center
Thu 03:43:53 PM 50.2333 -58.4833 237° Southwest 520 598 38,000  Level Moncton Center
Thu 03:44:53 PM 50.1500 -58.6667 235° Southwest 520 598 38,000  Level Moncton Center
Thu 03:45:32 PM 50.1000 -58.7833 236° Southwest 520 598 38,000  Level Gander Center
Thu 03:45:53 PM 50.0667 -58.8667 238° Southwest 520 598 38,000  Level Moncton Center
Thu 03:46:32 PM 50.0167 -58.9667 232° Southwest 520 598 38,000  Level Gander Center
Thu 03:47:32 PM 49.9333 -59.1500 235° Southwest 520 598 38,000  Level Gander Center
Thu 03:48:32 PM 49.8500 -59.3333 235° Southwest 520 598 38,000  Level Gander Center
Thu 03:48:53 PM 49.8167 -59.4167 238° Southwest 520 598 38,000  Level Moncton Center
Thu 03:49:53 PM 49.7500 -59.5833 238° Southwest 520 598 38,000  Level Moncton Center
Thu 03:50:53 PM 49.6500 -59.7667 230° Southwest 520 598 38,000  Level Moncton Center
Thu 03:51:32 PM 49.6000 -59.8833 237° Southwest 520 598 38,000  Level Gander Center
Thu 03:52:32 PM 49.5167 -60.0667 235° Southwest 520 598 38,000  Level Gander Center
Thu 03:52:53 PM 49.4833 -60.1500 238° Southwest 520 598 38,000  Level Moncton Center
Thu 03:53:53 PM 49.3833 -60.3000 224° Southwest 530 610 38,000  Level Moncton Center
Thu 03:54:32 PM 49.3333 -60.4333 240° Southwest 520 598 38,000  Level Gander Center
Thu 03:55:32 PM 49.2500 -60.6167 235° Southwest 520 598 38,000  Level Gander Center
Thu 03:55:53 PM 49.2167 -60.6833 233° Southwest 520 598 38,000  Level Moncton Center
Thu 03:56:53 PM 49.1167 -60.8667 230° Southwest 530 610 38,000  Level Moncton Center
Thu 03:57:53 PM 49.0333 -61.0500 235° Southwest 530 610 38,000  Level Moncton Center
Thu 03:58:53 PM 48.9667 -61.2167 239° Southwest 530 610 38,000  Level Moncton Center
Thu 03:59:53 PM 48.8667 -61.4000 230° Southwest 530 610 38,000  Level Moncton Center
Thu 04:00:53 PM 48.7833 -61.5833 235° Southwest 530 610 38,000  Level Moncton Center
Thu 04:01:32 PM 48.7333 -61.6833 233° Southwest 530 610 38,000  Level Gander Center
Thu 04:02:32 PM 48.6333 -61.8667 231° Southwest 530 610 38,000  Level Gander Center
Thu 04:02:53 PM 48.6000 -61.9167 225° Southwest 520 598 38,000  Level Moncton Center
Thu 04:03:32 PM 48.5500 -62.0333 237° Southwest 520 598 38,000  Level Gander Center
Thu 04:04:32 PM 48.4667 -62.2167 236° Southwest 530 610 38,000  Level Gander Center
Thu 04:04:53 PM 48.4167 -62.2833 222° Southwest 530 610 38,000  Level Moncton Center
Thu 04:05:32 PM 48.3667 -62.3833 233° Southwest 520 598 38,000  Level Gander Center
Thu 04:05:53 PM 48.3333 -62.4500 233° Southwest 520 598 38,000 889 Level Moncton Center
Thu 04:06:53 PM 48.2333 -62.6333 231° Southwest 520 598 39,200 1,000 Climbing Moncton Center
Thu 04:07:53 PM 48.1500 -62.7833 230° Southwest 520 598 40,000 400 Climbing Moncton Center
Thu 04:08:53 PM 48.0667 -62.9667 236° Southwest 520 598 40,000  Level Moncton Center
Thu 04:09:53 PM 47.9833 -63.1500 236° Southwest 520 598 40,000  Level Moncton Center
Thu 04:10:53 PM 47.8833 -63.3167 228° Southwest 520 598 40,000  Level Moncton Center
Thu 04:11:53 PM 47.8000 -63.4667 230° Southwest 520 598 40,000  Level Moncton Center
Thu 04:12:53 PM 47.7167 -63.6500 236° Southwest 520 598 40,000  Level Moncton Center
Thu 04:13:53 PM 47.6167 -63.8333 231° Southwest 520 598 40,000  Level Moncton Center
Thu 04:14:53 PM 47.5333 -63.9833 231° Southwest 520 598 40,000  Level Moncton Center
Thu 04:15:53 PM 47.4333 -64.1500 228° Southwest 520 598 40,000  Level Moncton Center
Thu 04:16:53 PM 47.3333 -64.3167 229° Southwest 520 598 40,000  Level Moncton Center
Thu 04:17:53 PM 47.2500 -64.5000 236° Southwest 530 610 40,000  Level Moncton Center
Thu 04:18:53 PM 47.1500 -64.6500 226° Southwest 530 610 40,000  Level Moncton Center
Thu 04:19:53 PM 47.0500 -64.8333 231° Southwest 530 610 40,000  Level Moncton Center
Thu 04:20:53 PM 46.9667 -64.9833 231° Southwest 530 610 40,000  Level Moncton Center
Thu 04:21:53 PM 46.8833 -65.1500 234° Southwest 530 610 40,000  Level Moncton Center
Thu 04:22:53 PM 46.7833 -65.3333 232° Southwest 530 610 40,000  Level Moncton Center
Thu 04:23:53 PM 46.6667 -65.5000 224° Southwest 540 621 40,000  Level Moncton Center
Thu 04:24:53 PM 46.5667 -65.6667 229° Southwest 540 621 40,000  Level Moncton Center
Thu 04:25:53 PM 46.4833 -65.8333 234° Southwest 540 621 40,000  Level Moncton Center
Thu 04:26:53 PM 46.3833 -66.0000 229° Southwest 530 610 40,000  Level Moncton Center
Thu 04:27:53 PM 46.3000 -66.1333 228° Southwest 530 610 40,000  Level Moncton Center
Thu 04:28:53 PM 46.2000 -66.3333 234° Southwest 530 610 40,000  Level Moncton Center
Thu 04:29:53 PM 46.0833 -66.4667 218° Southwest 540 621 40,000  Level Moncton Center
Thu 04:30:53 PM 45.9833 -66.6667 234° Southwest 530 610 40,000  Level Moncton Center
Thu 04:31:53 PM 45.9000 -66.8000 228° Southwest 530 610 40,000  Level Moncton Center
Thu 04:32:53 PM 45.8000 -66.9667 229° Southwest 540 621 40,000  Level Moncton Center
Thu 04:33:53 PM 45.7167 -67.1333 234° Southwest 540 621 40,000  Level Moncton Center
Thu 04:34:53 PM 45.6000 -67.2833 222° Southwest 540 621 40,000  Level Moncton Center
Thu 04:35:53 PM 45.5000 -67.4500 229° Southwest 540 621 40,000  Level Moncton Center
Thu 04:37:08 PM 45.4056 -67.6383 235° Southwest 538 619 40,000  Level Boston Center
Thu 04:37:53 PM 45.3000 -67.7667 221° Southwest 540 621 40,000  Level Moncton Center
Thu 04:38:53 PM 45.2000 -67.9333 230° Southwest 540 621 40,000 -80 Level Moncton Center
Thu 04:39:08 PM 45.2214 -67.9278 10° North 538 619 39,900  Descending Boston Center
Thu 04:39:53 PM 45.1000 -68.1000 225° Southwest 540 621 40,000 100 Climbing Moncton Center
Thu 04:40:08 PM 45.0917 -68.1350 251° West 538 619 40,000  Level Boston Center
Thu 04:42:00 PM 44.9302 -68.3823 227° Southwest  Level FlightAware Approximate
Thu 04:44:53 PM 44.6000 -68.8833 227° Southwest 530 610 40,000  Level Moncton Center
Thu 04:45:08 PM 44.5864 -68.9100 234° Southwest 538 619 40,000  Level Boston Center
Thu 04:46:08 PM 44.4847 -69.0614 227° Southwest 538 619 40,000  Level Boston Center
Thu 04:47:00 PM 44.4229 -69.1525 227° Southwest  Level FlightAware Approximate
Thu 04:47:08 PM 44.3969 -69.1944 227° Southwest 538 619 40,000  Level Boston Center
Thu 04:48:08 PM 44.2986 -69.3392 227° Southwest 532 612 40,000  Level Boston Center
Thu 04:49:00 PM 44.3202 -69.2975 227° Southwest  Level FlightAware Approximate
Thu 04:49:20 PM 44.1825 -69.5161 228° Southwest 521 600 40,000  Level Boston Center
Thu 04:50:00 PM 44.2325 -69.4267 227° Southwest  Level FlightAware Approximate
Thu 04:50:20 PM 44.0819 -69.6597 226° Southwest 516 594 40,000  Level Boston Center
Thu 04:51:20 PM 43.9811 -69.8058 226° Southwest 516 594 40,000  Level Boston Center
Thu 04:52:20 PM 43.9025 -69.9244 227° Southwest 516 594 40,000  Level Boston Center
Thu 04:53:20 PM 43.7772 -70.1139 228° Southwest 511 588 40,000  Level Boston Center
Thu 04:54:00 PM 43.8053 -70.0498 227° Southwest  Level FlightAware Approximate
Thu 04:54:20 PM 43.6881 -70.2350 225° Southwest 508 585 40,000  Level Boston Center
Thu 04:55:20 PM 43.5928 -70.3789 228° Southwest 510 587 39,900  Descending Boston Center
Thu 04:56:20 PM 43.4950 -70.5167 226° Southwest 510 587 40,000 50 Climbing Boston Center
Thu 04:57:20 PM 43.4014 -70.6597 228° Southwest 510 587 40,000  Level Boston Center
Thu 04:58:20 PM 43.3161 -70.8078 232° Southwest 504 580 40,000 -50 Level Boston Center
Thu 04:59:20 PM 43.2306 -70.9525 231° Southwest 499 574 39,900 -50 Descending Boston Center
Thu 05:00:20 PM 43.1428 -71.1028 231° Southwest 499 574 39,900 50 Level Boston Center
Thu 05:01:20 PM 43.0569 -71.2494 231° Southwest 507 583 40,000 50 Climbing Boston Center
Thu 05:02:20 PM 42.9728 -71.3931 231° Southwest 507 583 40,000  Level Boston Center
Thu 05:03:20 PM 42.8886 -71.5278 230° Southwest 516 594 40,000  Level Boston Center
Thu 05:04:20 PM 42.7981 -71.6789 231° Southwest 502 578 40,000  Level Boston Center
Thu 05:05:20 PM 42.7092 -71.8214 230° Southwest 497 572 40,000  Level Boston Center
Thu 05:06:20 PM 42.6244 -71.9661 232° Southwest 497 572 40,000  Level Boston Center
Thu 05:07:20 PM 42.5375 -72.1075 230° Southwest 497 572 40,000 -200 Level Boston Center
Thu 05:08:20 PM 42.4522 -72.2489 231° Southwest 497 572 39,600 -750 Descending Boston Center
Thu 05:09:20 PM 42.3669 -72.3811 229° Southwest 481 554 38,500 -1,200 Descending Boston Center
Thu 05:10:20 PM 42.2692 -72.5383 230° Southwest 487 560 37,200 -1,050 Descending Boston Center
Thu 05:11:20 PM 42.1833 -72.6811 231° Southwest 492 566 36,400 -600 Descending Boston Center
Thu 05:12:20 PM 42.0975 -72.8206 230° Southwest 492 566 36,000 -250 Descending Boston Center
Thu 05:13:20 PM 42.0242 -72.9319 228° Southwest 484 557 35,900  Descending Boston Center
Thu 05:14:20 PM 41.9214 -73.0847 228° Southwest 489 563 36,000 38 Climbing Boston Center
Thu 05:15:59 PM 41.7822 -73.2944 228° Southwest 477 549 36,000  Level New York Center
Thu 05:22:02 PM 41.2501 -74.0885 228° Southwest 472 543 36,000  Level FlightAware ADS-B
Thu 05:22:58 PM 41.1872 -74.1869 228° Southwest 477 549 36,000 -157 Level New York Center
Thu 05:23:57 PM 41.0872 -74.3250 226° Southwest 477 549 35,700 -1,815 Descending New York Center
Thu 05:24:57 PM 41.0000 -74.4525 228° Southwest 477 549 32,400 -3,344 Descending New York Center
Thu 05:25:59 PM 40.9183 -74.5964 233° Southwest 489 563 28,900 -2,250 Descending New York Center
Thu 05:26:57 PM 40.8467 -74.7486 238° Southwest 495 570 27,900 -1,210 Descending New York Center
Thu 05:27:58 PM 40.7853 -74.9011 242° Southwest 488 562 26,500 -1,426 Descending New York Center
Thu 05:28:59 PM 40.7667 -75.0700 262° West 458 527 25,000 -1,289 Descending New York Center
Thu 05:29:59 PM 40.7483 -75.2306 261° West 458 527 23,900 -1,100 Descending New York Center
Thu 05:30:59 PM 40.6783 -75.3708 237° Southwest 446 513 22,800 -1,169 Descending New York Center
Thu 05:31:57 PM 40.6022 -75.4997 232° Southwest 446 513 21,600 -1,109 Descending New York Center
Thu 05:32:58 PM 40.5261 -75.6283 232° Southwest 453 521 20,600 -843 Descending New York Center
Thu 05:33:58 PM 40.4525 -75.7486 231° Southwest 447 514 19,900 -298 Descending New York Center
Thu 05:34:59 PM 40.3828 -75.8661 232° Southwest 437 503 20,000 50 Climbing New York Center
Thu 05:35:59 PM 40.3047 -75.9856 229° Southwest 430 495 20,000 -353 Level New York Center
Thu 05:36:58 PM 40.2325 -76.1053 232° Southwest 430 495 19,300 -958 Descending New York Center
Thu 05:37:58 PM 40.1736 -76.2094 234° Southwest 415 478 18,100 -942 Descending New York Center
Thu 05:38:59 PM 40.0969 -76.3364 232° Southwest 415 478 17,400 -942 Descending New York Center
Thu 05:39:59 PM 40.0428 -76.4625 241° Southwest 400 460 16,200 -966 Descending New York Center
Thu 05:40:57 PM 39.9847 -76.5850 238° Southwest 400 460 15,500 -610 Descending New York Center
Thu 05:41:57 PM 39.9289 -76.7050 239° Southwest 395 455 15,000 -248 Descending New York Center
Thu 05:42:58 PM 39.8728 -76.8247 239° Southwest 395 455 15,000  Level New York Center
Thu 05:43:48 PM 39.8167 -76.9333 236° Southwest 389 448 15,000 -931 Level Potomac TRACON
Thu 05:44:54 PM 39.7667 -77.0500 241° Southwest 387 445 13,200 -1,571 Descending Potomac TRACON
Thu 05:45:54 PM 39.7167 -77.1667 241° Southwest 384 442 11,700 -1,500 Descending Potomac TRACON
Thu 05:46:54 PM 39.6333 -77.2500 218° Southwest 366 421 10,200 -1,148 Descending Potomac TRACON
Thu 05:47:49 PM 39.5667 -77.3167 218° Southwest 320 368 9,500 -843 Descending Potomac TRACON
Thu 05:48:55 PM 39.4833 -77.3667 205° Southwest 290 334 8,500 -1,048 Descending Potomac TRACON
Thu 05:49:55 PM 39.4167 -77.4167 210° Southwest 284 327 7,300 -1,050 Descending Potomac TRACON
Thu 05:50:55 PM 39.3500 -77.4667 210° Southwest 279 321 6,400 -1,050 Descending Potomac TRACON
Thu 05:51:55 PM 39.2667 -77.4667 180° South 269 310 5,200 -737 Descending Potomac TRACON
Thu 05:52:49 PM 39.2000 -77.4500 169° South 270 311 5,000 -833 Descending Potomac TRACON
Thu 05:53:43 PM 39.1500 -77.4500 180° South 232 267 3,700 -1,200 Descending Potomac TRACON
Thu 05:54:49 PM 39.0833 -77.4500 180° South 187 215 2,600 -1,000 Descending Potomac TRACON
Thu 05:55:49 PM 39.0333 -77.4667 195° South 164 189 1,600 -893 Descending Potomac TRACON
Thu 05:56:50 PM 39.0000 -77.4667 180° South 135 155 800 -787 Descending Potomac TRACON

Login

Don't have an account? Register now (free) for customized features, flight alerts, and more!